Flight Track Log - Related Links

Times and Time Zones

All times are in EDT time to prevent confusion due to time zone crossing. See the SKW6534 flight status page for this flight to view local times or setup timezone preferences in your user account.

Time Position Orientation Groundspeed Altitude Reporting Facility
EDT Latitude Longitude Course Direction KTS MPH feet Rate Location/Type
Mon 03:25:50 PM 43.5100 -112.1414 288° West 222 255 8,200  Level Salt Lake Center
Mon 03:26:51 PM 43.5592 -112.0822 41° Northeast 264 304 11,000 2,244 Climbing Salt Lake Center
Mon 03:27:53 PM 43.5022 -111.9969 133° Southeast 280 322 12,800 1,258 Climbing Salt Lake Center
Mon 03:28:55 PM 43.4353 -111.9078 136° Southeast 318 366 13,600 1,171 Climbing Salt Lake Center
Mon 03:29:00 PM 43.2577 -111.5918 127° Southeast  Level FlightAware Approximate
Mon 03:29:56 PM 43.3611 -111.7664 126° Southeast 392 451 15,200  Level Salt Lake Center
Mon 03:30:00 PM 43.1914 -111.4702 127° Southeast  Level FlightAware Approximate
Mon 03:30:58 PM 43.2961 -111.6472 127° Southeast 404 465 16,800  Level Salt Lake Center
Mon 03:31:59 PM 43.2175 -111.5014 126° Southeast 417 480 18,700 1,512 Climbing Salt Lake Center
Mon 03:33:01 PM 43.1475 -111.3739 127° Southeast 434 499 19,900 1,065 Climbing Salt Lake Center
Mon 03:34:03 PM 43.0764 -111.2408 126° Southeast 449 517 20,900 829 Climbing Salt Lake Center
Mon 03:35:04 PM 42.9908 -111.0850 127° Southeast 457 526 21,600 780 Climbing Salt Lake Center
Mon 03:36:06 PM 42.9153 -110.9497 127° Southeast 466 536 22,500 1,122 Climbing Salt Lake Center
Mon 03:37:07 PM 42.8264 -110.7844 126° Southeast 481 554 23,900 1,122 Climbing Salt Lake Center
Mon 03:38:09 PM 42.7486 -110.6444 127° Southeast 484 557 24,800 726 Climbing Salt Lake Center
Mon 03:39:11 PM 42.6700 -110.5075 128° Southeast 468 539 25,400 732 Climbing Salt Lake Center
Mon 03:40:12 PM 42.5803 -110.3486 127° Southeast 474 545 26,300 780 Climbing Salt Lake Center
Mon 03:41:14 PM 42.5033 -110.2108 127° Southeast 477 549 27,000 780 Climbing Salt Lake Center
Mon 03:42:15 PM 42.4119 -110.0494 127° Southeast 483 556 27,900 780 Climbing Salt Lake Center
Mon 03:43:17 PM 42.3339 -109.9128 128° Southeast 480 552 28,600 683 Climbing Salt Lake Center
Mon 03:44:18 PM 42.2553 -109.7742 127° Southeast 483 556 29,300 732 Climbing Salt Lake Center
Mon 03:45:20 PM 42.1636 -109.6142 128° Southeast 482 555 30,100 677 Climbing Salt Lake Center
Mon 03:46:22 PM 42.0844 -109.4767 128° Southeast 484 557 30,700 683 Climbing Salt Lake Center
Mon 03:47:23 PM 41.9919 -109.3169 128° Southeast 485 558 31,500 732 Climbing Salt Lake Center
Mon 03:48:25 PM 41.9131 -109.1819 128° Southeast 480 552 32,200 683 Climbing Salt Lake Center
Mon 03:49:26 PM 41.8347 -109.0478 128° Southeast 476 548 32,900 390 Climbing Salt Lake Center
Mon 03:50:28 PM 41.7442 -108.8908 128° Southeast 473 544 33,000 49 Climbing Salt Lake Center
Mon 03:51:29 PM 41.6622 -108.7544 129° Southeast 483 556 33,000  Level Salt Lake Center
Mon 03:52:31 PM 41.5667 -108.5914 128° Southeast 494 568 33,000  Level Salt Lake Center
Mon 03:53:32 PM 41.4831 -108.4522 129° Southeast 498 573 33,000  Level Salt Lake Center
Mon 03:54:34 PM 41.3989 -108.3119 129° Southeast 502 578 33,000  Level Salt Lake Center
Mon 03:55:09 PM 41.3431 -108.2153 128° Southeast 504 580 33,000  Level Denver Center
Mon 03:56:10 PM 41.2856 -108.0522 115° Southeast 510 587 33,000  Level Denver Center
Mon 03:56:37 PM 41.2597 -107.9697 113° Southeast 512 589 33,000  Level Salt Lake Center
Mon 03:57:12 PM 41.2194 -107.8614 116° Southeast 509 586 33,000  Level Denver Center
Mon 03:58:14 PM 41.1639 -107.6964 114° Southeast 511 588 33,000 -435 Level Denver Center
Mon 03:59:16 PM 41.0967 -107.5028 115° Southeast 517 595 32,100 -878 Descending Denver Center
Mon 04:00:17 PM 41.0361 -107.3297 115° Southeast 536 617 31,200 -1,024 Descending Denver Center
Mon 04:01:19 PM 40.9689 -107.1328 114° Southeast 528 608 30,000 -581 Descending Denver Center
Mon 04:02:21 PM 40.9114 -106.9697 115° Southeast 514 592 30,000  Level Denver Center
Mon 04:03:35 PM 40.8353 -106.7553 115° Southeast 506 582 30,000 44 Level Denver Center
Mon 04:04:37 PM 40.7783 -106.5953 115° Southeast 504 580 30,100  Climbing Denver Center
Mon 04:05:38 PM 40.7194 -106.4294 115° Southeast 507 583 30,000 -732 Descending Denver Center
Mon 04:06:40 PM 40.6525 -106.2417 115° Southeast 508 585 28,600 -1,548 Descending Denver Center
Mon 04:07:42 PM 40.5953 -106.0850 116° Southeast 497 572 26,800 -1,742 Descending Denver Center
Mon 04:08:44 PM 40.5364 -105.9228 115° Southeast 489 563 25,000 -1,756 Descending Denver Center
Mon 04:09:45 PM 40.4767 -105.7603 116° Southeast 489 563 23,200 -1,463 Descending Denver Center
Mon 04:10:47 PM 40.4097 -105.5794 116° Southeast 466 536 22,000 -1,065 Descending Denver Center
Mon 04:11:49 PM 40.3619 -105.4536 116° Southeast 416 479 21,000 -1,258 Descending Denver Center
Mon 04:12:51 PM 40.2931 -105.3394 128° Southeast 364 419 19,400 -1,707 Descending Denver Center
Mon 04:13:52 PM 40.2322 -105.2411 129° Southeast 352 405 17,500 -1,707 Descending Denver Center
Mon 04:14:54 PM 40.1647 -105.1356 130° Southeast 350 403 15,900 -1,210 Descending Denver Center
Mon 04:15:56 PM 40.1064 -105.0442 130° Southeast 328 377 15,000 -774 Descending Denver Center
Mon 04:16:58 PM 40.0464 -104.9517 130° Southeast 333 383 14,300 -774 Descending Denver Center
Mon 04:18:00 PM 39.9817 -104.8506 130° Southeast 335 386 13,400 -1,073 Descending Denver Center
Mon 04:19:01 PM 39.9056 -104.8050 155° Southeast 314 361 12,100 -1,171 Descending Denver Center
Mon 04:20:03 PM 39.8217 -104.8086 182° South 286 329 11,000 -823 Descending Denver Center
Mon 04:21:05 PM 39.7514 -104.8103 181° South 255 293 10,400 -774 Descending Denver Center
Mon 04:22:07 PM 39.6897 -104.7906 166° South 241 277 9,400 -1,171 Descending Denver Center
Mon 04:23:08 PM 39.6931 -104.6922 87° East 259 298 8,000 -927 Descending Denver Center
Mon 04:24:10 PM 39.7500 -104.6614 23° Northeast 222 255 7,500 -968 Descending Denver Center
Mon 04:25:12 PM 39.8003 -104.6614 360° North 170 196 6,000 -1,016 Descending Denver Center
Mon 04:26:14 PM 39.8428 -104.6625 359° North 157 181 5,400 -581 Descending Denver Center
Mon 04:28:00 PM 39.8500 -104.6667 21° North  Level FlightAware Approximate
Mon 04:35:00 PM 39.8617 -104.6732 21° North  Level Estimated
Mon 04:36:00 PM 39.8617 -104.6732 21° North  Level Estimated

Login

Don't have an account? Register now (free) for customized features, flight alerts, and more!